• Join FlightAware (Why Join?)
  • Login
  • US Flag 
04:09PM EDT


 

Airport Tracker/Info


-or-


 

Live Flight TrackerFlight Track Log ✈ RPA3253 ✈ 01-Aug-2013 ✈ KCLT - KMSY

Flight Track Log - Related Links

Times and Time Zones

All times are in EDT time to prevent confusion due to time zone crossing. See the RPA3253 flight status page for this flight to view local times or setup timezone preferences in your user account.

Time Position Orientation Groundspeed Altitude Reporting Facility
EDT Latitude Longitude Course Direction KTS MPH feet Rate Location/Type
11:52PM 35.1958 -80.9686 251° West 170 196 1,900  Level Atlanta Center
11:53PM 35.1453 -81.0364 228° Southwest 241 277 3,300 1,740 Climbing Atlanta Center
11:54PM 35.2667 -81.1784 270° West  Level FlightAware Approximate
11:54PM 35.1033 -81.1092 235° Southwest 291 335 6,000  Level Atlanta Center
11:55PM 35.1976 -81.2463 199° South  Level FlightAware Approximate
11:55PM 35.1225 -81.2150 283° West 296 341 9,300  Level Atlanta Center
11:56PM 35.0970 -81.2799 192° South  Level FlightAware Approximate
11:56PM 35.0847 -81.3025 242° Southwest 276 318 11,300  Level Atlanta Center
11:57PM 35.0535 -81.3877 251° West  Level FlightAware Approximate
11:57PM 35.0497 -81.4153 249° West 307 353 12,600  Level Atlanta Center
11:58PM 35.0167 -81.5281 250° West 346 398 14,600 1,800 Climbing Atlanta Center
11:59PM 34.9814 -81.6456 250° West 361 415 16,300 1,800 Climbing Atlanta Center
12:00AM 34.9419 -81.7633 248° West 369 425 18,200 1,740 Climbing Atlanta Center
12:01AM 34.8875 -81.8711 238° Southwest 379 436 19,800 1,500 Climbing Atlanta Center
12:02AM 34.8289 -81.9764 236° Southwest 385 443 21,200 1,380 Climbing Atlanta Center
12:03AM 34.7700 -82.0867 237° Southwest 385 443 22,600 1,260 Climbing Atlanta Center
12:04AM 34.7133 -82.2017 239° Southwest 391 450 23,800 1,140 Climbing Atlanta Center
12:05AM 34.6564 -82.3064 237° Southwest 405 466 24,900 900 Climbing Atlanta Center
12:06AM 34.5933 -82.4264 237° Southwest 412 474 25,700 840 Climbing Atlanta Center
12:07AM 34.5303 -82.5486 238° Southwest 424 488 26,600 900 Climbing Atlanta Center
12:08AM 34.4586 -82.6733 235° Southwest 441 507 27,600 900 Climbing Atlanta Center
12:09AM 34.3933 -82.7953 237° Southwest 447 514 28,500 780 Climbing Atlanta Center
12:10AM 34.3256 -82.9219 237° Southwest 447 514 29,200 720 Climbing Atlanta Center
12:11AM 34.2619 -83.0511 239° Southwest 453 521 30,000 360 Climbing Atlanta Center
12:12AM 34.1858 -83.1875 236° Southwest 459 528 30,000  Level Atlanta Center
12:13AM 34.1178 -83.3161 237° Southwest 459 528 30,000  Level Atlanta Center
12:14AM 34.0494 -83.4394 236° Southwest 459 528 30,000  Level Atlanta Center
12:15AM 33.9792 -83.5653 236° Southwest 459 528 30,000 120 Level Atlanta Center
12:16AM 33.9128 -83.6933 238° Southwest 464 534 30,300 360 Climbing Atlanta Center
12:17AM 33.8400 -83.8211 236° Southwest 464 534 30,800 300 Climbing Atlanta Center
12:18AM 33.7692 -83.9514 237° Southwest 464 534 31,000 60 Climbing Atlanta Center
12:19AM 33.6983 -84.0789 236° Southwest 464 534 31,000  Level Atlanta Center
12:20AM 33.6333 -84.2086 239° Southwest 464 534 31,000  Level Atlanta Center
12:21AM 33.5644 -84.3231 234° Southwest 464 534 31,000  Level Atlanta Center
12:22AM 33.4950 -84.4522 237° Southwest 464 534 31,000  Level Atlanta Center
12:23AM 33.4153 -84.5939 236° Southwest 464 534 31,000  Level Atlanta Center
12:24AM 33.3436 -84.7228 236° Southwest 464 534 31,000  Level Atlanta Center
12:25AM 33.2697 -84.8564 237° Southwest 464 534 31,000  Level Atlanta Center
12:26AM 33.1978 -84.9847 236° Southwest 464 534 31,000  Level Atlanta Center
12:27AM 33.1258 -85.1103 236° Southwest 464 534 31,000  Level Atlanta Center
12:28AM 33.0517 -85.2308 234° Southwest 464 534 31,000  Level Atlanta Center
12:29AM 32.9814 -85.3611 237° Southwest 459 528 31,000  Level Atlanta Center
12:31AM 32.9072 -85.4841 234° Southwest  Level FlightAware Approximate
12:36AM 32.4786 -86.2292 235° Southwest 576 663 31,000  Level Houston Center
12:37AM 32.4072 -86.3472 234° Southwest 465 535 31,000  Level Houston Center
12:38AM 32.4400 -86.2506 236° Southwest  Level FlightAware Approximate
12:38AM 32.3311 -86.4764 235° Southwest 466 536 31,000  Level Houston Center
12:39AM 32.3757 -86.3618 236° Southwest  Level FlightAware Approximate
12:39AM 32.2581 -86.6025 236° Southwest 467 537 31,000  Level Houston Center
12:40AM 32.3113 -86.4728 236° Southwest  Level FlightAware Approximate
12:40AM 32.1831 -86.7286 235° Southwest 468 539 31,000  Level Houston Center
12:41AM 32.2468 -86.5837 235° Southwest  Level FlightAware Approximate
12:41AM 32.1081 -86.8558 235° Southwest 472 543 31,000  Level Houston Center
12:42AM 32.1822 -86.6944 235° Southwest  Level FlightAware Approximate
12:42AM 32.0331 -86.9825 235° Southwest 473 544 31,000  Level Houston Center
12:43AM 31.9553 -87.1103 234° Southwest 480 552 31,000  Level Houston Center
12:44AM 31.8786 -87.2386 235° Southwest 480 552 31,000  Level Houston Center
12:45AM 31.8011 -87.3675 235° Southwest 482 555 31,000  Level Houston Center
12:46AM 31.7236 -87.4958 235° Southwest 483 556 31,000  Level Houston Center
12:47AM 31.6458 -87.6256 235° Southwest 487 560 31,000  Level Houston Center
12:48AM 31.5683 -87.7539 235° Southwest 484 557 31,000  Level Houston Center
12:49AM 31.4908 -87.8831 235° Southwest 485 558 31,000  Level Houston Center
12:50AM 31.4117 -88.0114 234° Southwest 487 560 31,000  Level Houston Center
12:51AM 31.3333 -88.1394 234° Southwest 488 562 31,000  Level Houston Center
12:52AM 31.2556 -88.2664 234° Southwest 489 563 31,000  Level Houston Center
12:53AM 31.1653 -88.4072 233° Southwest 490 564 31,000  Level Houston Center
12:54AM 31.0875 -88.5350 235° Southwest 486 559 31,000 -120 Level Houston Center
12:55AM 31.0042 -88.6689 234° Southwest 488 562 30,800 -1,320 Descending Houston Center
12:56AM 30.9256 -88.7936 234° Southwest 482 555 28,400 -2,340 Descending Houston Center
12:57AM 30.8517 -88.9119 234° Southwest 457 526 26,200 -2,160 Descending Houston Center
12:59AM 30.7718 -89.0205 229° Southwest  Level FlightAware Approximate
01:00AM 30.6419 -89.2453 232° Southwest 422 486 19,800  Level Houston Center
01:01AM 30.5753 -89.3497 233° Southwest 404 465 17,800 -1,980 Descending Houston Center
01:02AM 30.5108 -89.4528 234° Southwest 397 457 15,900 -1,980 Descending Houston Center
01:03AM 30.4639 -89.5250 233° Southwest 378 435 14,600 -1,920 Descending Houston Center
01:04AM 30.4047 -89.6194 234° Southwest 363 418 12,800 -1,740 Descending Houston Center
01:05AM 30.3453 -89.7139 234° Southwest 361 415 11,100 -1,320 Descending Houston Center
01:06AM 30.3022 -89.7635 232° Southwest  Level FlightAware Approximate
01:06AM 30.2897 -89.8006 233° Southwest 335 386 10,200  Level Houston Center
01:07AM 30.2358 -89.8825 233° Southwest 292 336 8,600 -1,620 Descending Houston Center
01:08AM 30.1861 -89.9592 233° Southwest 294 338 7,000 -1,680 Descending Houston Center
01:09AM 30.1383 -90.0333 233° Southwest 291 335 5,300 -1,560 Descending Houston Center
01:10AM 30.1078 -90.1164 247° West 285 328 3,900 -1,380 Descending Houston Center
01:11AM 30.0956 -90.2011 261° West 267 307 2,600 -900 Descending Houston Center
01:12AM 30.0814 -90.2833 259° West 229 264 2,100 -300 Descending Houston Center
01:13AM 30.0728 -90.3461 261° West 193 222 2,100  Level Houston Center
01:14AM 30.0408 -90.3931 232° Southwest 192 221 2,100 -480 Level Houston Center
01:16AM 30.0158 -90.3564 128° Southeast 168 193 1,100 -660 Descending Houston Center
01:16AM 30.0053 -90.3247 111° Southeast 143 165 800 -420 Descending Houston Center
01:18AM 29.9944 -90.2703 103° East 146 168 300 -420 Descending Houston Center